• Join FlightAware (Why Join?)
  • Login
  • US Flag 
09:14PM EDT


 

Airport Tracker/Info


-or-


 

Live Flight TrackerFlight Track Log ✈ FLG4099 ✈ 06-May-2013 ✈ KBTV - KDTW

Flight Track Log - Related Links

Times and Time Zones

All times are in EDT time to prevent confusion due to time zone crossing. See the FLG4099 flight status page for this flight to view local times or setup timezone preferences in your user account.

Time Position Orientation Groundspeed Altitude Reporting Facility
EDT Latitude Longitude Course Direction KTS MPH feet Rate Location/Type
06:22AM 44.4192 -73.2131 256° West 218 251 3,600  Level Boston Center
06:23AM 44.3976 -73.5559 253° West  Level FlightAware Approximate
06:23AM 44.4103 -73.2828 260° West 225 259 6,100  Level Boston Center
06:24AM 44.3689 -73.6894 253° West  Level FlightAware Approximate
06:24AM 44.3972 -73.3669 258° West 235 270 8,100  Level Boston Center
06:25AM 44.3488 -73.8258 259° West  Level FlightAware Approximate
06:25AM 44.3817 -73.4714 258° West 265 305 10,400  Level Boston Center
06:26AM 44.3281 -73.9620 256° West  Level FlightAware Approximate
06:26AM 44.3639 -73.5842 258° West 296 341 12,900  Level Boston Center
06:27AM 44.3033 -74.0968 256° West  Level FlightAware Approximate
06:27AM 44.3461 -73.6969 258° West 296 341 14,400  Level Boston Center
06:28AM 44.3239 -73.8300 257° West 324 373 15,600 1,200 Climbing Boston Center
06:29AM 44.2969 -73.9658 255° West 351 404 16,800 1,080 Climbing Boston Center
06:30AM 44.2700 -74.1072 255° West 369 425 17,800 1,080 Climbing Boston Center
06:31AM 44.2406 -74.2656 256° West 380 437 19,000 1,200 Climbing Boston Center
06:32AM 44.2089 -74.4125 253° West 390 449 20,200 1,200 Climbing Boston Center
06:33AM 44.1814 -74.5622 256° West 395 455 21,400 1,200 Climbing Boston Center
06:34AM 44.1514 -74.7086 254° West 400 460 22,600 1,440 Climbing Boston Center
06:35AM 44.0947 -74.8336 238° Southwest 381 438 24,300 1,560 Climbing Boston Center
06:36AM 44.0258 -74.9406 228° Southwest 387 445 25,800 1,200 Climbing Boston Center
06:37AM 43.9525 -75.0444 226° Southwest 387 445 26,700 900 Climbing Boston Center
06:38AM 43.8836 -75.1422 226° Southwest 387 445 27,600 600 Climbing Boston Center
06:39AM 43.8061 -75.2508 225° Southwest 393 452 28,000 180 Climbing Boston Center
06:40AM 43.7219 -75.3647 224° Southwest 406 467 28,000 -60 Level Boston Center
06:41AM 43.6722 -75.5089 245° Southwest 412 474 27,900  Descending Boston Center
06:42AM 43.6447 -75.6739 257° West 420 483 28,000  Climbing Boston Center
06:43AM 43.6211 -75.8389 259° West 437 503 28,000  Level Boston Center
06:44AM 43.5931 -76.0067 257° West 449 517 28,000  Level Boston Center
06:45AM 43.5500 -76.2894 258° West 438 504 28,000  Level Cleveland Center
06:46AM 43.5244 -76.4458 257° West 458 527 28,000  Level Cleveland Center
06:47AM 43.4969 -76.6167 258° West 458 527 28,000  Level Cleveland Center
06:48AM 43.4692 -76.7872 257° West 458 527 28,000  Level Cleveland Center
06:49AM 43.4167 -77.0000 251° West 460 529 28,000  Level Toronto Center
06:50AM 43.4075 -77.1425 265° West 453 521 28,000  Level Cleveland Center
06:51AM 43.3769 -77.3128 256° West 453 521 28,000  Level Cleveland Center
06:52AM 43.3483 -77.4828 257° West 453 521 28,000  Level Cleveland Center
06:53AM 43.3192 -77.6528 257° West 453 521 28,000  Level Cleveland Center
06:54AM 43.2900 -77.8194 257° West 453 521 28,000  Level Cleveland Center
06:55AM 43.2608 -77.9919 257° West 453 521 28,000  Level Cleveland Center
06:56AM 43.2311 -78.1611 256° West 458 527 28,000  Level Cleveland Center
06:57AM 43.2011 -78.3275 256° West 458 527 28,000  Level Cleveland Center
06:58AM 43.1708 -78.4967 256° West 458 527 28,000  Level Cleveland Center
06:59AM 43.1422 -78.6542 256° West 458 527 28,000  Level Cleveland Center
07:00AM 43.0969 -78.8119 249° West 458 527 28,000  Level Cleveland Center
07:01AM 43.0000 -79.0000 235° Southwest 460 529 28,000  Level Toronto Center
07:02AM 42.9333 -79.1333 236° Southwest 460 529 28,000  Level Toronto Center
07:03AM 42.8500 -79.3000 236° Southwest 460 529 28,000  Level Toronto Center
07:04AM 42.8397 -79.4111 263° West 464 534 28,000  Level Cleveland Center
07:05AM 42.8289 -79.5867 265° West 455 524 28,000  Level Cleveland Center
07:06AM 42.8136 -79.7597 263° West 461 531 28,000  Level Cleveland Center
07:07AM 42.8003 -79.9294 264° West 461 531 28,000  Level Cleveland Center
07:08AM 42.7781 -80.1053 260° West 469 540 28,000  Level Cleveland Center
07:09AM 42.7642 -80.2806 264° West 464 534 28,000  Level Cleveland Center
07:10AM 42.7478 -80.4531 263° West 464 534 28,000  Level Cleveland Center
07:11AM 42.7311 -80.6256 263° West 472 543 28,000 -60 Level Cleveland Center
07:12AM 42.7164 -80.7981 263° West 466 536 27,900 -960 Descending Cleveland Center
07:13AM 42.6992 -80.9731 262° West 466 536 26,100 -1,860 Descending Cleveland Center
07:14AM 42.6797 -81.1425 261° West 466 536 24,200 -1,380 Descending Cleveland Center
07:15AM 42.6581 -81.3089 260° West 450 518 23,400 -1,140 Descending Cleveland Center
07:16AM 42.6422 -81.4639 262° West 417 480 22,000 -720 Descending Cleveland Center
07:17AM 42.6244 -81.6103 261° West 410 472 22,000  Level Cleveland Center
07:18AM 42.6064 -81.7594 261° West 405 466 22,000 -600 Level Cleveland Center
07:19AM 42.5881 -81.9003 260° West 405 466 20,900 -1,680 Descending Cleveland Center
07:20AM 42.5697 -82.0464 260° West 405 466 18,700 -2,220 Descending Cleveland Center
07:21AM 42.5533 -82.1842 261° West 398 458 16,600 -2,160 Descending Cleveland Center
07:22AM 42.5439 -82.2544 260° West 356 410 15,600 -1,800 Descending Cleveland Center
07:22AM 42.5367 -82.3189 261° West 379 436 14,800 -1,740 Descending Cleveland Center
07:22AM 42.5317 -82.3694 262° West 358 412 14,200 -1,680 Descending Cleveland Center
07:23AM 42.5200 -82.4536 259° West 368 423 13,100 -1,680 Descending Cleveland Center
07:23AM 42.5150 -82.5014 262° West 359 413 12,500 -1,140 Descending Cleveland Center
07:24AM 42.4950 -82.5797 251° West 362 417 12,000 -480 Descending Cleveland Center
07:25AM 42.4817 -82.6186 245° Southwest 338 389 12,000  Level Cleveland Center
07:25AM 42.4553 -82.6939 245° Southwest 354 407 12,000  Level Cleveland Center
07:25AM 42.4444 -82.7300 248° West 339 390 12,000  Level Cleveland Center
07:26AM 42.4136 -82.8106 243° Southwest 348 400 12,000  Level Cleveland Center
07:26AM 42.4025 -82.8439 246° West 343 395 12,000  Level Cleveland Center
07:27AM 42.3717 -82.9272 243° Southwest 348 400 12,000  Level Cleveland Center
07:27AM 42.3628 -82.9606 250° West 345 397 12,000  Level Cleveland Center
07:28AM 42.3297 -83.0408 241° Southwest 348 400 12,000  Level Cleveland Center
07:28AM 42.3186 -83.0739 246° West 342 394 12,000 -780 Level Cleveland Center
07:29AM 42.2875 -83.1542 242° Southwest 342 394 11,300 -1,020 Descending Cleveland Center
07:29AM 42.2661 -83.1842 226° Southwest 317 365 11,000 -420 Descending Cleveland Center
07:30AM 42.2175 -83.2103 202° Southwest 309 356 10,900 -660 Descending Cleveland Center
07:31AM 42.1900 -83.2344 213° Southwest 278 320 10,300 -1,200 Descending Cleveland Center
07:31AM 42.1603 -83.2500 201° Southwest 299 344 9,700 -2,040 Descending Cleveland Center
07:31AM 42.1222 -83.2764 207° Southwest 277 319 8,500 -2,700 Descending Cleveland Center
07:32AM 42.0608 -83.3186 207° Southwest 272 313 6,300 -1,680 Descending Cleveland Center
07:34AM 42.0214 -83.3978 236° Southwest 265 305 5,100 -1,080 Descending Cleveland Center
07:35AM 42.0808 -83.4342 336° Northwest 221 254 4,000 -1,200 Descending Cleveland Center
07:36AM 42.1275 -83.4025 27° Northeast 167 192 2,700 -1,380 Descending Cleveland Center
07:36AM 42.1636 -83.3761 28° Northeast 143 165 1,400 -1,440 Descending Cleveland Center